Time;durP1;ratioP1;P1;durP2;ratioP2;P2;SDS_P1;SDS_P2;PMS_P1;PMS_P2;Temp;Humidity;BMP_temperature;BMP_pressure;BME280_temperature;BME280_humidity;BME280_pressure;Samples;Min_cycle;Max_cycle;Signal;HPM_P1;HPM_P2
2023/04/27 00:01:13;;;;;;;8.03;4.30;;;2.40;99.90;;;;;;5007895;28;20752;-79
2023/04/27 00:03:40;;;;;;;6.80;4.13;;;2.40;99.90;;;;;;5006390;28;20037;-80
2023/04/27 00:06:07;;;;;;;5.43;3.60;;;2.30;99.90;;;;;;4982923;28;20604;-81
2023/04/27 00:08:33;;;;;;;7.97;4.30;;;2.30;99.90;;;;;;5010358;28;20150;-81
2023/04/27 00:10:59;;;;;;;6.13;4.17;;;2.30;99.90;;;;;;5002944;28;20069;-81
2023/04/27 00:13:25;;;;;;;5.80;3.77;;;2.30;99.90;;;;;;5004491;28;20065;-80
2023/04/27 00:15:52;;;;;;;7.67;4.40;;;2.30;99.90;;;;;;5022959;28;20037;-81
2023/04/27 00:18:18;;;;;;;7.40;3.97;;;2.20;99.90;;;;;;5011564;28;20078;-81
2023/04/27 00:20:44;;;;;;;9.33;4.20;;;2.20;99.90;;;;;;5008455;28;20497;-80
2023/04/27 00:23:10;;;;;;;7.73;4.40;;;2.10;99.90;;;;;;5024843;28;20033;-81
2023/04/27 00:25:36;;;;;;;9.13;4.43;;;2.10;99.90;;;;;;5030963;28;20061;-81
2023/04/27 00:28:02;;;;;;;5.93;4.23;;;2.10;99.90;;;;;;5030986;28;20045;-81
2023/04/27 00:30:27;;;;;;;4.67;4.13;;;2.00;99.90;;;;;;5030905;28;20520;-81
2023/04/27 00:32:53;;;;;;;5.07;4.50;;;2.00;99.90;;;;;;5007994;28;20087;-81
2023/04/27 00:35:19;;;;;;;6.37;4.60;;;1.90;99.90;;;;;;4997661;28;20041;-81
2023/04/27 00:37:45;;;;;;;8.37;4.20;;;1.90;99.90;;;;;;5030364;28;20133;-80
2023/04/27 00:40:11;;;;;;;6.33;4.67;;;1.90;99.90;;;;;;5013937;28;20119;-81
2023/04/27 00:42:36;;;;;;;5.67;4.63;;;1.90;99.90;;;;;;5030405;28;20473;-81
2023/04/27 00:45:04;;;;;;;7.27;4.50;;;1.90;99.90;;;;;;5014499;28;20041;-80
2023/04/27 00:47:29;;;;;;;7.27;4.70;;;2.00;99.90;;;;;;5030920;28;20392;-81
2023/04/27 00:49:55;;;;;;;6.37;5.07;;;2.00;99.90;;;;;;5014327;28;20033;-81
2023/04/27 00:52:21;;;;;;;7.93;4.80;;;2.00;99.90;;;;;;5013907;28;20049;-81
2023/04/27 00:54:51;;;;;;;8.57;4.90;;;2.00;99.90;;;;;;5014482;28;20075;-81
2023/04/27 00:57:17;;;;;;;6.87;4.77;;;2.00;99.90;;;;;;4987326;28;20552;-81
2023/04/27 00:59:43;;;;;;;6.50;4.40;;;2.00;99.90;;;;;;5029988;28;20497;-81
2023/04/27 01:02:10;;;;;;;8.50;5.53;;;2.00;99.90;;;;;;4998082;28;20128;-81
2023/04/27 01:04:36;;;;;;;7.60;5.00;;;2.00;99.90;;;;;;4997996;28;20037;-81
2023/04/27 01:07:02;;;;;;;6.37;4.80;;;2.10;99.90;;;;;;5030145;28;20061;-81
2023/04/27 01:09:28;;;;;;;9.27;5.10;;;2.10;99.90;;;;;;5030496;28;20045;-81
2023/04/27 01:11:54;;;;;;;6.67;4.90;;;2.10;99.90;;;;;;4991450;28;20060;-81
2023/04/27 01:14:20;;;;;;;8.80;5.27;;;2.20;99.90;;;;;;5030483;28;20038;-81
2023/04/27 01:16:46;;;;;;;7.47;4.80;;;2.20;99.90;;;;;;5013939;28;20041;-81
2023/04/27 01:19:12;;;;;;;7.60;5.10;;;2.30;99.90;;;;;;5014160;28;20053;-81
2023/04/27 01:21:38;;;;;;;8.17;4.97;;;2.30;99.90;;;;;;5013662;28;20045;-81
2023/04/27 01:24:06;;;;;;;6.83;4.90;;;2.30;99.90;;;;;;4979582;28;20045;-81
2023/04/27 01:26:32;;;;;;;8.10;4.60;;;2.40;99.90;;;;;;5027781;28;20103;-81
2023/04/27 01:28:58;;;;;;;9.43;5.20;;;2.40;99.90;;;;;;5030825;28;20045;-81
2023/04/27 01:31:24;;;;;;;7.60;5.17;;;2.40;99.90;;;;;;5030325;28;20386;-81
2023/04/27 01:33:50;;;;;;;7.63;4.80;;;2.40;99.90;;;;;;5030300;28;20046;-80
2023/04/27 01:36:15;;;;;;;6.50;4.70;;;2.50;99.90;;;;;;5014099;28;20053;-80
2023/04/27 01:38:41;;;;;;;8.77;5.10;;;2.50;99.90;;;;;;5033067;28;20052;-81
2023/04/27 01:41:08;;;;;;;8.20;5.07;;;2.50;99.90;;;;;;5013861;28;20045;-81
2023/04/27 01:43:34;;;;;;;8.40;5.00;;;2.50;99.90;;;;;;5030659;28;20049;-81
2023/04/27 01:46:08;;;;;;;6.60;4.60;;;2.60;99.90;;;;;;5016956;28;20032;-81
2023/04/27 01:48:34;;;;;;;10.63;5.67;;;2.50;99.90;;;;;;5030584;28;20109;-81
2023/04/27 01:51:01;;;;;;;8.07;5.40;;;2.50;99.90;;;;;;5001071;28;20076;-81
2023/04/27 01:53:27;;;;;;;10.53;5.40;;;2.50;99.90;;;;;;5002823;28;20370;-81
2023/04/27 01:55:53;;;;;;;9.00;5.20;;;2.50;99.90;;;;;;5008493;28;20073;-81
2023/04/27 01:58:19;;;;;;;6.27;4.60;;;2.50;99.90;;;;;;5001145;28;20076;-81
2023/04/27 02:00:44;;;;;;;7.03;4.80;;;2.40;99.90;;;;;;5033899;28;20164;-81
2023/04/27 02:03:10;;;;;;;7.27;4.57;;;2.40;99.90;;;;;;5033766;28;20401;-81
2023/04/27 02:05:36;;;;;;;6.60;4.20;;;2.40;99.90;;;;;;4994800;28;20046;-81
2023/04/27 02:08:02;;;;;;;8.40;4.93;;;2.30;99.90;;;;;;4994023;28;20457;-81
2023/04/27 02:10:28;;;;;;;9.10;4.67;;;2.30;99.90;;;;;;5013468;28;20049;-81
2023/04/27 02:12:54;;;;;;;7.27;4.77;;;2.30;99.90;;;;;;5016987;28;20077;-81
2023/04/27 02:15:20;;;;;;;6.90;5.00;;;2.30;99.90;;;;;;5017388;28;20041;-80
2023/04/27 02:17:45;;;;;;;7.33;4.77;;;2.30;99.90;;;;;;5033067;28;20835;-81
2023/04/27 02:20:11;;;;;;;7.90;4.80;;;2.30;99.90;;;;;;5027049;28;20038;-81
2023/04/27 02:22:42;;;;;;;7.40;4.97;;;2.30;99.90;;;;;;5032874;28;20044;-81
2023/04/27 02:25:08;;;;;;;6.27;4.70;;;2.20;99.90;;;;;;5033241;28;20127;-81
2023/04/27 02:27:37;;;;;;;5.83;4.73;;;2.20;99.90;;;;;;5016851;28;20044;-81
2023/04/27 02:30:13;;;;;;;8.83;4.83;;;2.20;99.90;;;;;;5033000;28;20079;-81
2023/04/27 02:32:40;;;;;;;7.30;4.97;;;2.20;99.90;;;;;;5012455;28;20049;-81
2023/04/27 02:35:06;;;;;;;8.53;4.87;;;2.10;99.90;;;;;;5016570;28;20052;-81
2023/04/27 02:37:32;;;;;;;9.87;5.37;;;2.10;99.90;;;;;;5033014;28;20052;-81
2023/04/27 02:39:59;;;;;;;7.30;4.70;;;2.10;99.90;;;;;;5032712;28;20080;-81
2023/04/27 02:42:25;;;;;;;8.03;5.17;;;2.10;99.90;;;;;;5032812;28;20041;-81
2023/04/27 02:44:51;;;;;;;7.90;4.63;;;2.00;99.90;;;;;;5032561;28;20037;-81
2023/04/27 02:47:17;;;;;;;10.53;5.50;;;2.00;99.90;;;;;;5029557;28;20046;-81
2023/04/27 02:49:43;;;;;;;8.60;5.30;;;2.00;99.90;;;;;;5032198;28;20396;-81
2023/04/27 02:52:08;;;;;;;9.67;5.07;;;1.90;99.90;;;;;;5016625;28;20521;-81
2023/04/27 02:54:34;;;;;;;7.50;5.40;;;1.90;99.90;;;;;;5016447;28;20477;-81
2023/04/27 02:57:00;;;;;;;7.20;5.20;;;1.90;99.90;;;;;;5016373;28;20620;-81
2023/04/27 02:59:26;;;;;;;7.53;4.97;;;1.90;99.90;;;;;;5032389;28;20038;-81
2023/04/27 03:01:52;;;;;;;9.13;5.20;;;1.90;99.90;;;;;;5016159;28;20056;-80
2023/04/27 03:04:18;;;;;;;9.20;5.40;;;1.80;99.90;;;;;;5016050;28;20056;-81
2023/04/27 03:06:44;;;;;;;9.10;4.93;;;1.80;99.90;;;;;;5032329;28;20058;-81
2023/04/27 03:09:10;;;;;;;6.50;4.77;;;1.70;99.90;;;;;;5029183;28;20052;-81
2023/04/27 03:11:36;;;;;;;8.03;5.23;;;1.70;99.90;;;;;;5032339;28;20579;-81
2023/04/27 03:14:05;;;;;;;6.77;4.80;;;1.60;99.90;;;;;;4999451;28;20088;-81
2023/04/27 03:16:34;;;;;;;6.97;5.07;;;1.60;99.90;;;;;;5015739;28;20479;-80
2023/04/27 03:19:00;;;;;;;8.23;4.90;;;1.60;99.90;;;;;;5026222;28;20037;-81
2023/04/27 03:21:26;;;;;;;8.80;5.57;;;1.60;99.90;;;;;;5016998;28;20049;-81
2023/04/27 03:23:52;;;;;;;8.83;5.77;;;1.60;99.90;;;;;;4996847;28;20104;-81
2023/04/27 03:26:17;;;;;;;8.67;5.73;;;1.50;99.90;;;;;;5015679;28;20033;-81
2023/04/27 03:28:43;;;;;;;7.40;5.10;;;1.50;99.90;;;;;;5031990;28;20456;-80
2023/04/27 03:31:11;;;;;;;7.87;5.30;;;1.40;99.90;;;;;;5031888;28;20030;-81
2023/04/27 03:33:38;;;;;;;7.97;5.40;;;1.40;99.90;;;;;;5031973;28;20389;-81
2023/04/27 03:36:05;;;;;;;6.97;4.93;;;1.40;99.90;;;;;;5031919;28;20048;-81
2023/04/27 03:38:32;;;;;;;12.07;5.77;;;1.50;99.90;;;;;;5033624;28;20080;-81
2023/04/27 03:40:57;;;;;;;7.70;5.07;;;1.40;99.90;;;;;;5031830;28;20049;-81
2023/04/27 03:43:24;;;;;;;7.67;5.63;;;1.40;99.90;;;;;;5015423;28;20065;-81
2023/04/27 03:45:50;;;;;;;10.33;6.00;;;1.30;99.90;;;;;;5031638;28;20443;-81
2023/04/27 03:48:16;;;;;;;10.17;5.73;;;1.30;99.90;;;;;;5015539;28;20033;-80
2023/04/27 03:50:43;;;;;;;8.73;5.80;;;1.30;99.90;;;;;;5014969;28;20030;-81
2023/04/27 03:53:09;;;;;;;11.33;5.70;;;1.30;99.90;;;;;;5014530;28;20045;-81
2023/04/27 03:55:42;;;;;;;8.87;5.50;;;1.30;99.90;;;;;;5031202;28;20049;-81
2023/04/27 03:58:11;;;;;;;8.53;6.20;;;1.20;99.90;;;;;;5013104;28;20048;-81
2023/04/27 04:00:37;;;;;;;9.77;5.63;;;1.20;99.90;;;;;;5009287;28;20125;-81
2023/04/27 04:03:04;;;;;;;9.00;6.00;;;1.20;99.90;;;;;;4997952;28;20037;-81
2023/04/27 04:05:29;;;;;;;10.53;6.20;;;1.20;99.90;;;;;;5030711;28;20038;-81
2023/04/27 04:07:56;;;;;;;9.80;6.20;;;1.20;99.90;;;;;;5030112;28;20050;-81
2023/04/27 04:10:22;;;;;;;8.90;5.70;;;1.20;99.90;;;;;;5025815;28;20069;-81
2023/04/27 04:12:48;;;;;;;8.00;5.57;;;1.10;99.90;;;;;;5021360;28;20080;-81
2023/04/27 04:15:13;;;;;;;7.47;5.57;;;1.10;99.90;;;;;;5030121;28;20041;-80
2023/04/27 04:17:39;;;;;;;6.67;5.57;;;1.10;99.90;;;;;;4998300;28;20044;-81
2023/04/27 04:20:09;;;;;;;9.17;5.80;;;1.20;99.90;;;;;;5030848;28;20428;-80
2023/04/27 04:22:36;;;;;;;10.63;5.70;;;1.10;99.90;;;;;;5030278;28;20045;-81
2023/04/27 04:25:02;;;;;;;8.70;5.77;;;1.10;99.90;;;;;;5030547;28;20513;-80
2023/04/27 04:27:28;;;;;;;7.90;5.40;;;1.10;99.90;;;;;;5013803;28;20378;-80
2023/04/27 04:29:54;;;;;;;11.30;6.17;;;1.10;99.90;;;;;;5030549;28;20049;-80
2023/04/27 04:32:21;;;;;;;11.57;6.90;;;1.10;99.90;;;;;;5030545;28;20057;-80
2023/04/27 04:34:50;;;;;;;8.97;6.43;;;1.10;99.90;;;;;;5014302;28;20080;-80
2023/04/27 04:37:17;;;;;;;9.87;6.37;;;1.10;99.90;;;;;;5030019;28;20048;-80
2023/04/27 04:39:43;;;;;;;10.73;6.13;;;1.20;99.90;;;;;;5030200;28;20053;-80
2023/04/27 04:42:09;;;;;;;8.47;6.40;;;1.20;99.90;;;;;;5013621;28;20045;-80
2023/04/27 04:44:35;;;;;;;9.37;6.63;;;1.30;99.90;;;;;;5030189;28;20120;-80
2023/04/27 04:47:01;;;;;;;10.63;6.90;;;1.30;99.90;;;;;;4997969;28;20465;-80
2023/04/27 04:49:26;;;;;;;9.10;6.27;;;1.30;99.90;;;;;;5007880;28;20040;-80
2023/04/27 04:51:52;;;;;;;9.63;5.90;;;1.40;99.90;;;;;;4990267;28;20079;-80
2023/04/27 04:54:18;;;;;;;10.10;6.23;;;1.40;99.90;;;;;;5013837;28;20049;-80
2023/04/27 04:56:43;;;;;;;8.33;6.40;;;1.40;99.90;;;;;;4997583;28;20044;-80
2023/04/27 04:59:09;;;;;;;8.53;5.67;;;1.50;99.90;;;;;;5013510;28;20498;-80
2023/04/27 05:01:35;;;;;;;9.83;6.10;;;1.50;99.90;;;;;;5013407;28;20038;-81
2023/04/27 05:04:01;;;;;;;8.83;6.67;;;1.50;99.90;;;;;;4997004;28;20048;-79
2023/04/27 05:06:27;;;;;;;10.27;6.03;;;1.50;99.90;;;;;;5013137;28;20045;-80
2023/04/27 05:08:52;;;;;;;10.83;6.30;;;1.50;99.90;;;;;;5029260;28;20554;-80
2023/04/27 05:11:18;;;;;;;9.60;7.00;;;1.50;99.90;;;;;;5012837;28;20053;-79
2023/04/27 05:13:43;;;;;;;10.43;7.10;;;1.50;99.90;;;;;;5016576;28;20096;-81
2023/04/27 05:16:09;;;;;;;9.93;7.30;;;1.60;99.90;;;;;;5001562;28;20042;-82
2023/04/27 05:18:35;;;;;;;12.20;7.83;;;1.60;99.90;;;;;;5033862;28;20508;-80
2023/04/27 05:21:01;;;;;;;13.07;8.23;;;1.60;99.90;;;;;;5024336;28;20047;-80
2023/04/27 05:23:27;;;;;;;12.07;7.83;;;1.70;99.90;;;;;;5033762;28;20049;-82
2023/04/27 05:25:53;;;;;;;11.33;7.57;;;1.70;99.90;;;;;;5033817;28;20045;-82
2023/04/27 05:28:18;;;;;;;14.80;8.07;;;1.70;99.90;;;;;;5033936;28;20068;-82
2023/04/27 05:30:44;;;;;;;13.17;7.60;;;1.80;99.90;;;;;;5017572;28;20095;-80
2023/04/27 05:33:10;;;;;;;10.07;7.77;;;1.80;99.90;;;;;;5036155;28;20105;-80
2023/04/27 05:35:36;;;;;;;12.67;7.67;;;1.80;99.90;;;;;;5039276;28;20060;-80
2023/04/27 05:38:02;;;;;;;14.50;7.70;;;1.90;99.90;;;;;;5040723;28;20041;-80
2023/04/27 05:40:28;;;;;;;11.03;7.33;;;2.00;99.90;;;;;;5017111;28;20065;-80
2023/04/27 05:42:54;;;;;;;10.20;7.20;;;2.00;99.90;;;;;;5016678;28;20508;-80
2023/04/27 05:45:20;;;;;;;15.67;7.93;;;2.10;99.90;;;;;;5017411;28;20051;-80
2023/04/27 05:47:46;;;;;;;13.00;7.60;;;2.20;99.90;;;;;;5024576;28;20041;-80
2023/04/27 05:50:12;;;;;;;14.07;8.70;;;2.30;99.90;;;;;;5033512;28;20091;-82
2023/04/27 05:52:38;;;;;;;9.77;7.67;;;2.40;99.90;;;;;;5017470;28;20056;-82
2023/04/27 05:55:04;;;;;;;14.57;8.23;;;2.50;99.90;;;;;;5033988;28;20037;-81
2023/04/27 05:57:30;;;;;;;13.80;8.23;;;2.60;99.90;;;;;;5016391;28;20400;-81
2023/04/27 05:59:56;;;;;;;11.90;8.23;;;2.70;99.90;;;;;;5033509;28;20077;-81
2023/04/27 06:02:22;;;;;;;13.10;8.57;;;2.80;99.90;;;;;;5016169;28;20116;-81
2023/04/27 06:04:48;;;;;;;13.17;8.40;;;2.90;99.90;;;;;;5033737;28;20087;-81
2023/04/27 06:07:14;;;;;;;13.53;7.67;;;3.00;99.90;;;;;;5031725;28;20064;-81
2023/04/27 06:09:41;;;;;;;12.03;7.97;;;3.10;99.90;;;;;;5033542;28;20107;-81
2023/04/27 06:12:07;;;;;;;14.77;9.07;;;3.20;99.90;;;;;;5004374;28;20052;-81
2023/04/27 06:14:35;;;;;;;12.67;8.17;;;3.30;99.90;;;;;;5004408;28;20073;-81
2023/04/27 06:17:01;;;;;;;13.37;8.23;;;3.40;99.90;;;;;;5000911;28;20045;-82
2023/04/27 06:19:27;;;;;;;12.17;8.03;;;3.60;99.90;;;;;;5032986;28;20124;-82
2023/04/27 06:21:54;;;;;;;11.83;8.80;;;3.70;99.90;;;;;;5033042;28;20176;-82
2023/04/27 06:24:20;;;;;;;13.90;7.83;;;3.90;99.90;;;;;;5032182;28;20056;-82
2023/04/27 06:26:46;;;;;;;13.13;8.10;;;4.00;99.90;;;;;;5032973;28;20132;-81
2023/04/27 06:29:12;;;;;;;11.90;7.97;;;4.20;99.90;;;;;;4995668;28;20124;-81
2023/04/27 06:31:38;;;;;;;14.67;8.33;;;4.30;99.90;;;;;;5019048;28;20073;-82
2023/04/27 06:34:03;;;;;;;12.13;8.73;;;4.50;99.90;;;;;;4979771;28;20049;-82
2023/04/27 06:36:30;;;;;;;13.37;8.17;;;4.60;99.90;;;;;;5000908;28;20125;-81
2023/04/27 06:38:56;;;;;;;10.40;7.73;;;4.70;99.90;;;;;;4969082;28;20504;-81
2023/04/27 06:41:24;;;;;;;12.60;8.00;;;4.80;99.90;;;;;;4988023;28;20096;-81
2023/04/27 06:43:50;;;;;;;13.57;8.67;;;5.00;99.90;;;;;;5008518;28;20091;-81
2023/04/27 06:46:16;;;;;;;13.40;7.70;;;5.10;99.90;;;;;;4985754;28;20073;-82
2023/04/27 06:48:41;;;;;;;12.60;7.93;;;5.30;99.90;;;;;;5009810;28;20139;-81
2023/04/27 06:51:07;;;;;;;10.23;7.00;;;5.40;99.90;;;;;;5032729;28;20033;-82
2023/04/27 06:53:33;;;;;;;12.23;7.67;;;5.50;99.90;;;;;;5015824;28;20513;-82
2023/04/27 06:55:59;;;;;;;8.57;7.10;;;5.60;99.90;;;;;;5032545;28;20053;-81
2023/04/27 06:58:26;;;;;;;11.37;7.80;;;5.70;99.90;;;;;;5016100;28;20469;-81
2023/04/27 07:00:51;;;;;;;12.10;7.40;;;5.90;99.90;;;;;;5028179;28;20050;-81
2023/04/27 07:03:17;;;;;;;13.43;7.50;;;6.00;99.90;;;;;;4991366;28;20053;-81
2023/04/27 07:05:43;;;;;;;10.87;7.37;;;6.10;99.90;;;;;;5032094;28;20109;-81
2023/04/27 07:08:09;;;;;;;11.70;7.07;;;6.30;99.90;;;;;;5016250;28;20054;-81
2023/04/27 07:10:35;;;;;;;13.23;6.63;;;6.40;99.90;;;;;;5001968;28;20037;-82
2023/04/27 07:13:01;;;;;;;11.73;6.57;;;6.60;99.90;;;;;;5024368;28;20328;-82
2023/04/27 07:15:26;;;;;;;12.13;6.50;;;6.70;99.90;;;;;;4985074;28;20052;-81
2023/04/27 07:17:55;;;;;;;10.70;6.50;;;6.90;99.90;;;;;;4986917;28;20049;-82
2023/04/27 07:20:21;;;;;;;7.60;5.97;;;7.00;99.90;;;;;;5012916;28;20491;-81
2023/04/27 07:22:46;;;;;;;6.53;5.40;;;7.20;99.90;;;;;;5008838;28;20042;-81
2023/04/27 07:25:12;;;;;;;8.50;5.47;;;7.40;99.90;;;;;;5002984;28;20098;-82
2023/04/27 07:27:38;;;;;;;6.90;5.47;;;7.50;99.90;;;;;;5002722;28;20046;-81
2023/04/27 07:30:08;;;;;;;7.40;5.50;;;7.60;99.90;;;;;;5021924;28;20045;-81
2023/04/27 07:32:34;;;;;;;9.53;5.33;;;7.80;99.90;;;;;;5007983;28;20096;-82
2023/04/27 07:34:59;;;;;;;6.60;4.77;;;7.90;99.90;;;;;;5012911;28;20052;-82
2023/04/27 07:37:25;;;;;;;8.47;5.60;;;8.00;99.90;;;;;;5003101;28;20038;-81
2023/04/27 07:39:52;;;;;;;6.13;4.17;;;8.10;99.90;;;;;;4994297;28;20045;-82
2023/04/27 07:42:18;;;;;;;8.07;5.07;;;8.30;99.90;;;;;;5027235;28;20049;-82
2023/04/27 07:44:44;;;;;;;8.87;4.50;;;8.40;99.90;;;;;;5014064;28;20049;-82
2023/04/27 07:47:10;;;;;;;6.80;4.20;;;8.60;99.90;;;;;;5012125;28;20382;-82
2023/04/27 07:49:39;;;;;;;5.77;4.03;;;8.70;99.90;;;;;;4982895;28;20038;-81
2023/04/27 07:52:04;;;;;;;5.07;4.10;;;8.90;99.90;;;;;;5008555;28;20100;-81
2023/04/27 07:54:30;;;;;;;6.83;3.50;;;8.90;99.90;;;;;;5022941;28;20118;-81
2023/04/27 07:56:56;;;;;;;6.13;3.83;;;9.00;99.90;;;;;;5001822;28;20092;-81
2023/04/27 07:59:22;;;;;;;7.67;3.87;;;9.20;99.90;;;;;;5013263;28;20042;-81
2023/04/27 08:01:47;;;;;;;5.67;3.60;;;9.30;99.90;;;;;;5002199;28;20376;-81
2023/04/27 08:04:14;;;;;;;5.30;3.50;;;9.40;99.90;;;;;;5031087;28;20073;-81
2023/04/27 08:06:40;;;;;;;7.90;4.07;;;9.50;99.90;;;;;;5013943;28;20115;-81
2023/04/27 08:09:06;;;;;;;4.17;3.10;;;9.60;99.90;;;;;;5032050;28;20460;-81
2023/04/27 08:11:32;;;;;;;5.43;3.67;;;9.70;99.90;;;;;;5030994;28;20053;-81
2023/04/27 08:13:58;;;;;;;5.67;3.60;;;9.80;99.90;;;;;;5007719;28;20033;-80
2023/04/27 08:16:23;;;;;;;5.70;3.67;;;9.90;99.90;;;;;;5000532;28;20041;-79
2023/04/27 08:18:49;;;;;;;4.73;3.20;;;10.00;99.90;;;;;;4994735;28;20347;-81
2023/04/27 08:21:15;;;;;;;10.07;3.80;;;10.10;99.90;;;;;;4989563;28;20038;-81
2023/04/27 08:23:41;;;;;;;4.30;3.07;;;10.10;99.90;;;;;;4991586;28;20054;-81
2023/04/27 08:26:07;;;;;;;6.93;3.07;;;10.20;99.90;;;;;;5014580;28;20389;-82
2023/04/27 08:28:33;;;;;;;4.27;3.23;;;10.20;99.90;;;;;;5027241;28;20045;-81
2023/04/27 08:30:58;;;;;;;5.50;3.10;;;10.40;99.90;;;;;;4998901;28;20033;-82
2023/04/27 08:33:24;;;;;;;3.83;3.20;;;10.50;99.90;;;;;;5005248;28;20049;-81
2023/04/27 08:35:53;;;;;;;4.27;2.90;;;10.60;99.90;;;;;;4982762;28;20045;-81
2023/04/27 08:38:19;;;;;;;6.73;3.47;;;10.60;99.90;;;;;;5023962;28;20401;-84
2023/04/27 08:40:44;;;;;;;5.43;3.60;;;10.80;99.90;;;;;;4998720;28;20045;-85
2023/04/27 08:43:10;;;;;;;8.27;3.40;;;10.90;99.90;;;;;;4998369;28;20045;-84
2023/04/27 08:45:36;;;;;;;5.30;3.40;;;10.90;99.90;;;;;;5014944;28;20140;-85
2023/04/27 08:48:02;;;;;;;3.80;3.40;;;11.00;99.90;;;;;;5014097;28;20041;-85
2023/04/27 08:50:28;;;;;;;6.83;3.73;;;11.10;99.90;;;;;;5014530;28;20397;-84
2023/04/27 08:52:54;;;;;;;5.17;3.67;;;11.10;99.90;;;;;;5030717;28;20083;-84
2023/04/27 08:55:20;;;;;;;5.47;3.50;;;11.20;99.90;;;;;;4998629;28;20077;-85
2023/04/27 08:58:00;;;;;;;5.17;3.80;;;11.30;99.90;;;;;;5014642;28;20095;-84
2023/04/27 09:00:26;;;;;;;5.60;3.77;;;11.40;99.90;;;;;;5014826;28;20072;-84
2023/04/27 09:02:52;;;;;;;4.87;3.50;;;11.50;99.90;;;;;;5030577;28;20057;-84
2023/04/27 09:05:20;;;;;;;5.70;4.10;;;11.60;99.90;;;;;;5014273;28;20048;-85
2023/04/27 09:08:01;;;;;;;6.73;3.83;;;11.60;99.90;;;;;;5030538;28;20050;-84
2023/04/27 09:10:28;;;;;;;6.60;4.07;;;11.70;99.90;;;;;;5030828;28;20616;-84
2023/04/27 09:12:58;;;;;;;6.13;4.10;;;11.80;99.90;;;;;;5030851;28;20080;-84
2023/04/27 09:15:25;;;;;;;5.80;3.80;;;11.90;99.90;;;;;;5011263;28;20107;-84
2023/04/27 09:17:55;;;;;;;5.97;3.63;;;12.00;99.90;;;;;;5011091;28;20132;-84
2023/04/27 09:20:21;;;;;;;6.33;3.87;;;12.10;99.90;;;;;;5010683;28;20050;-84
2023/04/27 09:22:50;;;;;;;5.00;3.93;;;12.00;99.90;;;;;;5030072;28;20046;-85
2023/04/27 09:25:42;;;;;;;5.33;3.77;;;12.10;99.90;;;;;;5029607;28;20045;-84
2023/04/27 09:28:08;;;;;;;7.32;4.00;;;12.20;99.90;;;;;;5027336;28;20397;-84
2023/04/27 09:30:35;;;;;;;5.57;4.10;;;12.30;99.90;;;;;;5030279;28;20034;-85
2023/04/27 09:33:01;;;;;;;7.70;4.35;;;12.40;99.90;;;;;;4981672;28;20099;-83
2023/04/27 09:35:32;;;;;;;6.80;4.43;;;12.60;99.90;;;;;;5014120;28;20041;-85
2023/04/27 09:37:59;;;;;;;7.03;4.70;;;12.70;99.90;;;;;;5030267;28;20102;-84
2023/04/27 09:40:28;;;;;;;5.90;4.40;;;12.80;99.90;;;;;;4998334;28;20052;-85
2023/04/27 09:42:55;;;;;;;8.32;5.07;;;12.80;99.90;;;;;;5031276;28;20049;-84
2023/04/27 09:45:25;;;;;;;6.93;5.03;;;12.90;99.90;;;;;;5030591;28;20074;-84
2023/04/27 09:47:51;;;;;;;6.22;5.20;;;12.80;99.90;;;;;;5030491;28;20489;-85
2023/04/27 09:50:17;;;;;;;5.75;5.05;;;12.90;99.90;;;;;;5020823;28;20076;-84
2023/04/27 09:52:45;;;;;;;5.47;4.40;;;13.00;99.90;;;;;;5011221;28;20129;-84
2023/04/27 09:55:16;;;;;;;7.30;4.55;;;13.20;94.40;;;;;;5030905;28;20029;-84
2023/04/27 09:57:41;;;;;;;6.78;5.18;;;13.30;96.70;;;;;;5030668;28;20107;-83
2023/04/27 10:00:47;;;;;;;10.52;4.88;;;13.20;90.50;;;;;;5032375;28;20130;-84
2023/04/27 10:03:25;;;;;;;7.03;4.72;;;13.30;80.00;;;;;;5033942;28;20102;-84
2023/04/27 10:06:25;;;;;;;9.18;5.10;;;13.40;81.60;;;;;;5018100;28;20099;-84
2023/04/27 10:08:51;;;;;;;8.27;5.35;;;13.30;75.80;;;;;;5033657;28;20060;-85
2023/04/27 10:11:21;;;;;;;11.10;5.18;;;13.10;77.30;;;;;;5034384;28;20124;-84
2023/04/27 10:13:52;;;;;;;7.63;5.70;;;13.00;74.50;;;;;;5034267;28;20508;-84
2023/04/27 10:16:18;;;;;;;7.97;4.95;;;13.00;77.20;;;;;;5006929;28;20077;-84
2023/04/27 10:18:56;;;;;;;8.25;5.20;;;13.40;90.90;;;;;;5014121;28;20064;-84
2023/04/27 10:21:22;;;;;;;7.63;5.00;;;13.60;85.50;;;;;;5005754;28;20056;-84
2023/04/27 10:23:50;;;;;;;5.80;5.20;;;13.80;95.90;;;;;;5017420;28;20053;-84
2023/04/27 10:26:26;;;;;;;7.88;5.47;;;14.00;82.80;;;;;;5017525;28;20084;-84
2023/04/27 10:29:09;;;;;;;9.32;5.30;;;14.10;78.30;;;;;;5016646;28;20103;-83
2023/04/27 10:31:35;;;;;;;7.47;4.93;;;14.20;89.10;;;;;;5016971;28;20038;-85
2023/04/27 10:34:08;;;;;;;6.82;5.28;;;14.10;86.10;;;;;;5017092;28;20048;-85
2023/04/27 10:36:38;;;;;;;9.40;5.75;;;14.20;80.40;;;;;;5016970;28;20177;-84
2023/04/27 10:39:17;;;;;;;7.72;5.53;;;14.10;78.60;;;;;;5033600;28;20615;-85
2023/04/27 10:41:54;;;;;;;7.20;5.72;;;14.00;79.60;;;;;;5017134;28;20034;-85
2023/04/27 10:44:28;;;;;;;6.70;5.40;;;13.90;89.80;;;;;;5033285;28;20482;-84
2023/04/27 10:46:55;;;;;;;9.57;6.35;;;13.50;80.70;;;;;;5033164;28;20042;-85
2023/04/27 10:49:22;;;;;;;7.45;5.70;;;13.30;86.40;;;;;;5000587;28;20037;-85
2023/04/27 10:51:49;;;;;;;8.55;6.20;;;13.20;89.70;;;;;;5033170;28;20048;-86
2023/04/27 10:54:15;;;;;;;9.18;6.93;;;13.10;86.30;;;;;;4999854;28;20041;-84
2023/04/27 10:56:41;;;;;;;7.55;6.10;;;13.30;94.00;;;;;;5016460;28;20091;-84
2023/04/27 10:59:08;;;;;;;7.47;5.78;;;13.50;92.60;;;;;;5016765;28;20064;-85
2023/04/27 11:01:34;;;;;;;8.55;6.18;;;13.40;85.70;;;;;;5032683;28;20041;-87
2023/04/27 11:04:02;;;;;;;7.60;6.25;;;13.20;84.10;;;;;;5010841;28;20041;-84
2023/04/27 11:06:29;;;;;;;8.18;6.05;;;13.00;91.00;;;;;;5011342;28;20497;-85
2023/04/27 11:08:55;;;;;;;8.43;6.07;;;12.90;92.70;;;;;;5000241;28;20136;-85
2023/04/27 11:11:21;;;;;;;9.15;6.10;;;12.70;89.90;;;;;;5032389;28;20127;-84
2023/04/27 11:13:48;;;;;;;7.00;6.00;;;12.60;90.20;;;;;;5016424;28;20045;-85
2023/04/27 11:16:20;;;;;;;9.40;6.10;;;12.50;85.80;;;;;;5016769;28;20191;-85
2023/04/27 11:18:46;;;;;;;8.73;5.40;;;12.40;92.30;;;;;;5016182;28;20094;-84
2023/04/27 11:21:14;;;;;;;8.73;5.82;;;12.40;82.30;;;;;;5016133;28;20134;-84
2023/04/27 11:23:41;;;;;;;8.85;6.22;;;12.30;85.30;;;;;;5016029;28;20041;-84
2023/04/27 11:26:16;;;;;;;6.13;5.20;;;12.30;86.60;;;;;;5015771;28;20040;-83
2023/04/27 11:29:04;;;;;;;5.72;4.68;;;12.30;84.00;;;;;;5023011;28;20057;-84
2023/04/27 11:31:47;;;;;;;8.70;4.93;;;12.30;81.70;;;;;;5003814;28;20045;-82
2023/04/27 11:34:21;;;;;;;6.03;4.80;;;12.30;77.50;;;;;;5016080;28;20045;-84
2023/04/27 11:37:02;;;;;;;6.30;4.78;;;12.30;75.90;;;;;;5032160;28;20489;-84
2023/04/27 11:39:32;;;;;;;8.02;4.88;;;12.40;74.40;;;;;;5031729;28;20072;-84
2023/04/27 11:42:17;;;;;;;7.85;4.90;;;12.50;75.20;;;;;;5012440;28;20038;-85
2023/04/27 11:44:58;;;;;;;6.90;5.30;;;12.60;73.90;;;;;;5006165;28;20033;-81
2023/04/27 11:47:26;;;;;;;8.90;5.50;;;12.80;73.60;;;;;;5014766;28;20083;-80
2023/04/27 11:49:55;;;;;;;5.93;4.95;;;12.90;74.30;;;;;;5031271;28;20406;-82
2023/04/27 11:52:22;;;;;;;10.15;5.28;;;13.00;71.70;;;;;;5020614;28;20046;-80
2023/04/27 11:54:55;;;;;;;7.55;4.53;;;13.10;71.80;;;;;;5031027;28;20120;-80
2023/04/27 11:57:28;;;;;;;6.30;5.05;;;13.10;70.50;;;;;;5030547;28;20041;-80
2023/04/27 11:59:55;;;;;;;6.20;5.00;;;12.80;67.90;;;;;;5031296;28;20045;-81
2023/04/27 12:02:22;;;;;;;6.90;4.97;;;12.90;69.30;;;;;;5031238;28;20049;-81
2023/04/27 12:04:49;;;;;;;7.85;4.80;;;12.90;69.90;;;;;;5014127;28;20048;-80
2023/04/27 12:07:15;;;;;;;6.63;4.68;;;12.90;70.20;;;;;;5030430;28;20057;-80
2023/04/27 12:09:41;;;;;;;9.38;5.00;;;12.90;68.90;;;;;;5030532;28;20046;-80
2023/04/27 12:12:07;;;;;;;8.35;5.15;;;12.80;70.30;;;;;;5030712;28;20041;-80
2023/04/27 12:14:33;;;;;;;7.82;4.97;;;12.80;70.70;;;;;;5031396;28;20045;-80
2023/04/27 12:16:58;;;;;;;8.23;5.43;;;12.80;72.00;;;;;;5025255;28;20496;-80
2023/04/27 12:19:24;;;;;;;6.72;4.60;;;12.70;71.50;;;;;;5014140;28;20049;-80
2023/04/27 12:21:51;;;;;;;5.90;4.78;;;12.70;70.80;;;;;;5013544;28;20072;-80
2023/04/27 12:24:17;;;;;;;5.10;4.50;;;12.60;71.40;;;;;;5014635;28;20095;-81
2023/04/27 12:26:43;;;;;;;9.07;5.22;;;12.60;73.80;;;;;;5014729;28;20046;-80
2023/04/27 12:29:09;;;;;;;6.28;4.95;;;12.60;73.90;;;;;;4984732;28;20117;-80
2023/04/27 12:31:35;;;;;;;6.85;5.20;;;12.60;74.30;;;;;;5030228;28;20068;-80
2023/04/27 12:34:01;;;;;;;6.28;4.85;;;12.60;76.30;;;;;;5014274;28;20073;-80
2023/04/27 12:36:27;;;;;;;7.22;4.47;;;12.60;74.10;;;;;;5014080;28;20406;-80
2023/04/27 12:39:14;;;;;;;6.18;4.90;;;12.70;75.70;;;;;;4997912;28;20037;-80
2023/04/27 12:41:45;;;;;;;5.00;4.35;;;12.70;74.00;;;;;;5014341;28;20371;-80
2023/04/27 12:44:11;;;;;;;5.82;4.78;;;12.70;74.10;;;;;;5030882;28;20113;-80
2023/04/27 12:46:38;;;;;;;5.22;4.40;;;12.70;72.10;;;;;;5029669;28;20041;-80
2023/04/27 12:49:05;;;;;;;6.53;4.60;;;12.50;71.40;;;;;;5029852;28;20037;-80
2023/04/27 12:51:32;;;;;;;10.50;4.63;;;12.50;71.30;;;;;;5030353;28;20397;-80